Flight Track Log - Related Links

Times and Time Zones

All times are in EDT time to prevent confusion due to time zone crossing. See the VNR160 flight status page for this flight to view local times or setup timezone preferences in your user account.

Time Position Orientation Groundspeed Altitude Reporting Facility
EDT Latitude Longitude Course Direction KTS MPH feet Rate Location/Type
Fri 08:35:54 PM 25.9267 -80.2228 69° East 174 200 2,700  Level Miami Center
Fri 08:36:16 PM 25.9456 -80.2233 358° North 191 220 3,200 1,855 Climbing Miami Center
Fri 08:36:49 PM 25.9639 -80.2492 308° West 197 227 4,400 2,200 Climbing Miami Center
Fri 08:37:16 PM 25.9800 -80.2703 310° West 209 241 5,400 2,069 Climbing Miami Center
Fri 08:38:16 PM 25.9994 -80.3289 290° West 204 235 7,400 1,900 Climbing Miami Center
Fri 08:39:16 PM 26.0294 -80.3875 300° West 210 242 9,200 2,200 Climbing Miami Center
Fri 08:40:16 PM 26.0942 -80.3869 360° North 192 221 11,800 2,100 Climbing Miami Center
Fri 08:41:16 PM 26.1606 -80.4028 348° North 213 245 13,400 1,800 Climbing Miami Center
Fri 08:42:16 PM 26.2206 -80.4325 336° Northwest 251 289 15,400 2,050 Climbing Miami Center
Fri 08:43:16 PM 26.2886 -80.4647 337° Northwest 257 296 17,500 2,000 Climbing Miami Center
Fri 08:44:16 PM 26.3608 -80.4969 338° Northwest 257 296 19,400 1,500 Climbing Miami Center
Fri 08:45:16 PM 26.4244 -80.5431 327° Northwest 262 302 20,500 1,200 Climbing Miami Center
Fri 08:46:16 PM 26.4900 -80.5961 324° Northwest 282 325 21,800 750 Climbing Miami Center
Fri 08:47:16 PM 26.5597 -80.6447 328° Northwest 291 335 22,000 100 Climbing Miami Center
Fri 08:48:16 PM 26.6489 -80.6683 347° North 313 360 22,000  Level Miami Center
Fri 08:49:16 PM 26.7400 -80.6994 343° North 328 377 22,000  Level Miami Center
Fri 08:50:16 PM 26.8136 -80.7600 324° Northwest 328 377 22,000  Level Miami Center
Fri 08:51:16 PM 26.8850 -80.8228 322° Northwest 328 377 22,000  Level Miami Center
Fri 08:52:16 PM 26.9461 -80.8786 321° Northwest 328 377 22,000  Level Miami Center
Fri 08:53:16 PM 27.0194 -80.9439 322° Northwest 322 371 22,000  Level Miami Center
Fri 08:54:16 PM 27.0908 -81.0047 323° Northwest 322 371 22,000  Level Miami Center
Fri 08:55:16 PM 27.1597 -81.0725 319° Northwest 322 371 22,000 -600 Level Miami Center
Fri 08:56:16 PM 27.2353 -81.1314 325° Northwest 322 371 20,800 -1,050 Descending Miami Center
Fri 08:57:16 PM 27.3061 -81.2017 319° Northwest 327 376 19,900 -400 Descending Miami Center
Fri 08:58:16 PM 27.3753 -81.2628 322° Northwest 327 376 20,000 50 Climbing Miami Center
Fri 08:59:16 PM 27.4425 -81.3239 321° Northwest 321 369 20,000  Level Miami Center
Fri 09:00:16 PM 27.5194 -81.3925 322° Northwest 321 369 20,000 -350 Level Miami Center
Fri 09:01:16 PM 27.5886 -81.4536 322° Northwest 321 369 19,300 -1,527 Descending Miami Center
Fri 09:03:01 PM 27.7167 -81.5667 322° Northwest 323 372 15,800 -2,036 Descending Orlando TRACON
Fri 09:04:01 PM 27.8000 -81.6000 341° North 331 381 13,700 -2,150 Descending Orlando TRACON
Fri 09:05:01 PM 27.8833 -81.6167 350° North 312 359 11,500 -1,895 Descending Orlando TRACON
Fri 09:05:55 PM 27.9667 -81.6167 360° North 315 362 10,100 -700 Descending Orlando TRACON
Fri 09:07:01 PM 28.0500 -81.6167 360° North 303 349 10,100  Level Orlando TRACON
Fri 09:08:07 PM 28.1500 -81.6167 360° North 296 341 10,100  Level Orlando TRACON
Fri 09:09:01 PM 28.2333 -81.6333 350° North 302 348 10,100  Level Orlando TRACON
Fri 09:10:07 PM 28.3167 -81.6333 360° North 304 350 10,100 -100 Level Orlando TRACON
Fri 09:11:01 PM 28.4000 -81.6333 360° North 308 354 9,900 -1,000 Descending Orlando TRACON
Fri 09:12:01 PM 28.4667 -81.6000 24° Northeast 294 338 8,200 -1,810 Descending Orlando TRACON
Fri 09:13:07 PM 28.5667 -81.5833 North 301 346 6,100 -1,905 Descending Orlando TRACON
Fri 09:14:07 PM 28.6500 -81.5500 19° North 294 338 4,200 -1,900 Descending Orlando TRACON
Fri 09:15:07 PM 28.7167 -81.5167 24° Northeast 256 295 2,300 -1,050 Descending Orlando TRACON
Fri 09:16:07 PM 28.7500 -81.4500 60° Northeast 222 255 2,100 -300 Descending Orlando TRACON
Fri 09:17:07 PM 28.7667 -81.4000 69° East 194 223 1,700 -211 Descending Orlando TRACON
Fri 09:18:01 PM 28.7833 -81.3500 69° East 181 208 1,700 -400 Level Orlando TRACON
Fri 09:19:07 PM 28.7833 -81.3000 90° East 118 136 900 -727 Descending Orlando TRACON
Fri 09:21:00 PM 28.7667 -81.2333 77° East  Level FlightAware Approximate
Fri 09:28:00 PM 28.7767 -81.2355 77° East  Level Estimated

Login

Don't have an account? Register now (free) for customized features, flight alerts, and more!